ePrivacy and GPDR Cookie Consent by Cookie Consent
EmailTwitter


Observations de surface / Québec / CYND

Régions: Québec | Canada | États-Unis | Europe | France | UK | Ailleurs
Station
Affichage
Infos & localisation pour CYND | Aide pour décoder les METARs

Observations prises le 2022-12-03 à 19H00 UTC à OTTAWA GATINEAU, QB (CYND)

Etat du ciel: couvert.

Obstacle(s) à la visibilité: faible pluie et brume.

Température: 9.0 Celsius

Point de rosée: 7.0 Celsius

Humidité relative: 87%

Facteur vent 6.

Facteur vent (rafales) 5.

Vents: Sud-ouest à 22 km/h ou 12 noeuds.

Rafale du vent: 37 km/h ou 20 noeuds.

Pression au niveau moyen de la mer: 99.97 kilopascals.

Calage altimétrique: 99.93 kilopascals ou 29.51 pouces de mercure.

Visibilité horizontale: 5.00 milles terrestres ou 8.00 kilomètres.

Hauteur du plafond: 335 mètres ( 1100 pieds ).

Observation METAR:

CYND 031900Z 23012G20KT 5SM -RA BR OVC011 09/07 A2951 RMK SC8 SLP997=